createdAt,value
2018-07-14T00:02:00.814Z,5.20
2018-07-14T00:04:28.073Z,4.40
2018-07-14T00:06:55.313Z,4.35
2018-07-14T00:09:22.577Z,4.40
2018-07-14T00:11:49.920Z,5.00
2018-07-14T00:14:17.265Z,4.70
2018-07-14T00:16:44.524Z,4.30
2018-07-14T00:19:11.767Z,4.50
2018-07-14T00:21:39.035Z,4.37
2018-07-14T00:24:06.369Z,5.10
2018-07-14T00:26:33.713Z,4.50
2018-07-14T00:29:00.996Z,4.90
2018-07-14T00:31:28.381Z,5.00
2018-07-14T00:33:55.644Z,5.15
2018-07-14T00:36:22.905Z,5.60
2018-07-14T00:38:50.264Z,5.78
2018-07-14T00:41:17.868Z,5.10
2018-07-14T00:43:45.173Z,4.50
2018-07-14T00:46:12.428Z,4.90
2018-07-14T00:48:39.708Z,5.20
2018-07-14T00:51:07.165Z,5.30
2018-07-14T00:53:34.486Z,4.90
2018-07-14T00:56:01.772Z,5.65
2018-07-14T00:58:29.232Z,5.50
2018-07-14T01:00:56.565Z,5.27
2018-07-14T01:03:23.807Z,5.20
2018-07-14T01:05:51.200Z,5.00
2018-07-14T01:08:18.498Z,5.45
2018-07-14T01:10:45.760Z,5.10
2018-07-14T01:13:12.995Z,5.13
2018-07-14T01:15:40.264Z,5.25
2018-07-14T01:18:07.613Z,4.97
2018-07-14T01:20:35.221Z,5.28
2018-07-14T01:23:02.529Z,5.50
2018-07-14T01:25:29.834Z,5.50
2018-07-14T01:27:57.080Z,5.33
2018-07-14T01:30:24.333Z,5.00
2018-07-14T01:32:51.689Z,5.40
2018-07-14T01:35:18.970Z,5.60
2018-07-14T01:37:46.200Z,5.95
2018-07-14T01:40:13.497Z,5.42
2018-07-14T01:42:40.813Z,5.72
2018-07-14T01:45:08.410Z,5.42
2018-07-14T01:47:36.909Z,5.22
2018-07-14T01:50:04.267Z,5.53
2018-07-14T01:52:31.547Z,5.35
2018-07-14T01:54:58.823Z,5.33
2018-07-14T01:57:26.052Z,5.65
2018-07-14T01:59:53.345Z,5.30
2018-07-14T02:02:20.649Z,5.78
2018-07-14T02:04:47.977Z,5.47
2018-07-14T02:07:15.282Z,5.40
2018-07-14T02:09:42.536Z,5.33
2018-07-14T02:12:09.831Z,5.30
2018-07-14T02:14:37.184Z,5.50
2018-07-14T02:17:04.538Z,5.28
2018-07-14T02:19:31.812Z,5.20
2018-07-14T02:21:59.049Z,5.03
2018-07-14T02:24:26.306Z,4.90
2018-07-14T02:26:53.643Z,5.22
2018-07-14T02:29:20.911Z,5.47
2018-07-14T02:31:48.136Z,5.40
2018-07-14T02:34:15.401Z,4.75
2018-07-14T02:36:42.721Z,5.08
2018-07-14T02:39:09.993Z,5.67
2018-07-14T02:41:37.326Z,5.30
2018-07-14T02:44:05.297Z,5.20
2018-07-14T02:46:32.603Z,5.50
2018-07-14T02:48:59.883Z,5.40
2018-07-14T02:51:27.390Z,5.28
2018-07-14T02:53:54.717Z,5.20
2018-07-14T02:56:22.009Z,5.43
2018-07-14T02:58:49.344Z,5.70
2018-07-14T03:01:16.657Z,5.58
2018-07-14T03:03:43.910Z,5.70
2018-07-14T03:06:11.209Z,5.50
2018-07-14T03:08:38.526Z,4.95
2018-07-14T03:11:05.916Z,5.30
2018-07-14T03:13:33.273Z,5.62
2018-07-14T03:16:00.537Z,5.00
2018-07-14T03:18:27.874Z,5.80
2018-07-14T03:20:55.185Z,5.10
2018-07-14T03:23:22.643Z,4.85
2018-07-14T03:25:50.001Z,5.30
2018-07-14T03:28:17.451Z,4.97
2018-07-14T03:30:45.196Z,4.67
2018-07-14T03:33:12.457Z,4.45
2018-07-14T03:35:39.716Z,4.83
2018-07-14T03:38:07.021Z,5.20
2018-07-14T03:40:34.324Z,4.90
2018-07-14T03:43:01.589Z,4.67
2018-07-14T03:45:28.873Z,4.70
2018-07-14T03:47:56.188Z,4.90
2018-07-14T03:50:30.245Z,4.50
2018-07-14T03:52:57.644Z,4.70
2018-07-14T03:55:24.817Z,4.00
2018-07-14T03:57:52.028Z,4.28
2018-07-14T04:00:19.268Z,4.83
2018-07-14T04:02:46.554Z,4.70
2018-07-14T04:05:13.809Z,4.03
2018-07-14T04:07:41.104Z,4.40
2018-07-14T04:10:08.413Z,4.00
2018-07-14T04:12:35.813Z,4.10
2018-07-14T04:15:03.132Z,4.20
2018-07-14T04:17:30.439Z,4.40
2018-07-14T04:19:57.761Z,4.00
2018-07-14T04:22:25.031Z,4.10
2018-07-14T04:24:52.325Z,3.72
2018-07-14T04:27:19.548Z,4.08
2018-07-14T04:29:46.800Z,4.22
2018-07-14T04:32:14.063Z,3.80
2018-07-14T04:34:41.291Z,4.15
2018-07-14T04:37:08.596Z,4.00
2018-07-14T04:39:35.926Z,4.20
2018-07-14T04:42:03.270Z,4.17
2018-07-14T04:44:30.512Z,4.00
2018-07-14T04:46:57.762Z,3.90
2018-07-14T04:49:25.072Z,3.90
2018-07-14T04:54:26.420Z,4.40
2018-07-14T04:56:53.725Z,4.10
2018-07-14T04:59:20.972Z,3.70
2018-07-14T05:01:48.221Z,3.67
2018-07-14T05:04:15.632Z,3.50
2018-07-14T05:06:42.857Z,3.80
2018-07-14T05:09:10.146Z,3.60
2018-07-14T05:11:37.524Z,3.40
2018-07-14T05:14:04.887Z,3.10
2018-07-14T05:16:32.220Z,3.47
2018-07-14T05:18:59.477Z,3.20
2018-07-14T05:21:26.879Z,2.98
2018-07-14T05:23:54.033Z,2.67
2018-07-14T05:26:21.388Z,3.12
2018-07-14T05:28:48.717Z,2.80
2018-07-14T05:31:16.379Z,2.80
2018-07-14T05:33:43.711Z,2.90
2018-07-14T05:36:10.960Z,2.90
2018-07-14T05:38:38.260Z,3.00
2018-07-14T05:41:05.913Z,2.90
2018-07-14T05:43:33.218Z,3.47
2018-07-14T05:46:00.504Z,2.77
2018-07-14T05:48:27.822Z,3.10
2018-07-14T05:50:55.056Z,2.70
2018-07-14T05:53:22.364Z,2.80
2018-07-14T05:55:49.791Z,3.02
2018-07-14T05:58:17.036Z,2.90
2018-07-14T06:00:44.326Z,2.92
2018-07-14T06:03:11.643Z,3.30
2018-07-14T06:05:38.976Z,3.20
2018-07-14T06:08:06.461Z,3.05
2018-07-14T06:10:33.773Z,3.10
2018-07-14T06:13:01.103Z,2.98
2018-07-14T06:15:28.398Z,2.70
2018-07-14T06:17:55.748Z,2.50
2018-07-14T06:20:23.062Z,2.98
2018-07-14T06:22:50.365Z,2.65
2018-07-14T06:25:17.721Z,2.30
2018-07-14T06:27:45.140Z,2.62
2018-07-14T06:30:12.396Z,2.60
2018-07-14T06:32:40.053Z,2.40
2018-07-14T06:35:07.362Z,2.70
2018-07-14T06:37:35.268Z,2.50
2018-07-14T06:40:02.591Z,2.92
2018-07-14T06:42:29.918Z,2.90
2018-07-14T06:44:57.172Z,2.70
2018-07-14T06:47:24.428Z,3.00
2018-07-14T06:49:51.822Z,3.55
2018-07-14T06:52:19.140Z,2.77
2018-07-14T06:54:46.397Z,2.97
2018-07-14T06:59:40.530Z,3.20
2018-07-14T07:02:07.833Z,3.10
2018-07-14T07:04:35.232Z,2.97
2018-07-14T07:07:02.511Z,2.50
2018-07-14T07:09:29.797Z,2.47
2018-07-14T07:11:57.143Z,2.50
2018-07-14T07:14:24.406Z,2.20
2018-07-14T07:16:51.774Z,3.03
2018-07-14T07:19:19.038Z,2.60
2018-07-14T07:21:46.313Z,2.40
2018-07-14T07:24:13.568Z,2.07
2018-07-14T07:26:40.834Z,2.13
2018-07-14T07:29:08.161Z,2.17
2018-07-14T07:31:35.634Z,2.10
2018-07-14T07:34:03.242Z,2.20
2018-07-14T07:36:30.801Z,2.30
2018-07-14T07:38:58.357Z,2.00
2018-07-14T07:41:25.649Z,2.30
2018-07-14T07:43:52.949Z,2.83
2018-07-14T07:46:20.310Z,2.20
2018-07-14T07:48:47.575Z,1.90
2018-07-14T07:51:14.861Z,2.10
2018-07-14T07:53:42.117Z,2.13
2018-07-14T07:56:09.436Z,2.30
2018-07-14T07:58:36.778Z,1.90
2018-07-14T08:01:22.113Z,1.90
2018-07-14T08:03:49.417Z,2.10
2018-07-14T08:06:16.705Z,1.90
2018-07-14T08:08:44.107Z,2.00
2018-07-14T08:11:11.380Z,2.17
2018-07-14T08:13:38.744Z,1.70
2018-07-14T08:16:06.139Z,2.07
2018-07-14T08:18:33.587Z,2.40
2018-07-14T08:21:00.915Z,2.60
2018-07-14T08:23:28.236Z,1.60
2018-07-14T08:25:55.540Z,2.03
2018-07-14T08:28:22.785Z,2.37
2018-07-14T08:30:50.089Z,2.03
2018-07-14T08:33:17.394Z,1.97
2018-07-14T08:35:45.791Z,2.27
2018-07-14T08:38:13.239Z,1.80
2018-07-14T08:40:40.591Z,2.40
2018-07-14T08:43:07.939Z,1.80
2018-07-14T08:45:35.384Z,1.90
2018-07-14T08:48:02.845Z,2.00
2018-07-14T08:50:30.196Z,1.80
2018-07-14T08:52:57.448Z,2.08
2018-07-14T08:55:24.716Z,1.77
2018-07-14T08:57:52.068Z,1.90
2018-07-14T09:00:19.380Z,1.70
2018-07-14T09:02:46.674Z,1.80
2018-07-14T09:05:13.925Z,1.70
2018-07-14T09:07:41.153Z,2.10
2018-07-14T09:10:08.541Z,2.20
2018-07-14T09:12:35.988Z,1.80
2018-07-14T09:15:03.298Z,2.00
2018-07-14T09:17:30.591Z,1.85
2018-07-14T09:19:57.870Z,2.00
2018-07-14T09:22:25.180Z,1.90
2018-07-14T09:24:52.566Z,3.15
2018-07-14T09:27:19.819Z,2.22
2018-07-14T09:29:47.105Z,2.23
2018-07-14T09:34:41.769Z,1.90
2018-07-14T09:37:09.045Z,1.87
2018-07-14T09:39:36.390Z,2.27
2018-07-14T09:42:03.696Z,1.90
2018-07-14T09:44:31.095Z,2.00
2018-07-14T09:46:58.497Z,1.98
2018-07-14T09:49:26.442Z,1.75
2018-07-14T09:51:53.851Z,1.90
2018-07-14T09:54:21.469Z,1.70
2018-07-14T09:56:48.789Z,2.30
2018-07-14T09:59:16.119Z,2.00
2018-07-14T10:01:43.501Z,1.70
2018-07-14T10:04:10.901Z,2.20
2018-07-14T10:06:38.461Z,2.20
2018-07-14T10:09:06.234Z,1.90
2018-07-14T10:11:33.589Z,2.10
2018-07-14T10:14:00.939Z,2.20
2018-07-14T10:16:28.242Z,2.08
2018-07-14T10:18:55.695Z,2.00
2018-07-14T10:21:22.994Z,1.87
2018-07-14T10:23:50.278Z,2.00
2018-07-14T10:26:17.863Z,2.40
2018-07-14T10:28:45.169Z,2.50
2018-07-14T10:31:12.469Z,2.20
2018-07-14T10:33:39.872Z,2.20
2018-07-14T10:36:07.192Z,2.40
2018-07-14T10:38:34.599Z,2.17
2018-07-14T10:41:01.887Z,2.20
2018-07-14T10:43:29.233Z,2.00
2018-07-14T10:45:56.542Z,2.00
2018-07-14T10:48:23.837Z,1.60
2018-07-14T10:50:51.209Z,1.80
2018-07-14T10:53:18.501Z,2.63
2018-07-14T10:55:45.831Z,1.77
2018-07-14T10:58:13.526Z,1.50
2018-07-14T11:00:40.870Z,1.90
2018-07-14T11:12:55.430Z,1.80
2018-07-14T11:15:22.921Z,2.00
2018-07-14T11:17:50.217Z,2.70
2018-07-14T11:20:17.499Z,3.42
2018-07-14T11:22:44.825Z,3.67
2018-07-14T11:25:12.062Z,3.30
2018-07-14T11:27:39.461Z,3.00
2018-07-14T11:30:06.925Z,2.67
2018-07-14T11:32:34.216Z,1.90
2018-07-14T11:35:01.506Z,1.70
2018-07-14T11:37:28.776Z,2.60
2018-07-14T11:39:56.078Z,2.70
2018-07-14T11:42:23.691Z,2.72
2018-07-14T11:44:50.991Z,2.60
2018-07-14T11:47:18.257Z,2.15
2018-07-14T11:49:45.534Z,2.80
2018-07-14T11:52:12.801Z,2.87
2018-07-14T11:54:40.113Z,2.27
2018-07-14T11:57:07.496Z,2.12
2018-07-14T11:59:34.874Z,1.90
2018-07-14T12:02:02.263Z,1.40
2018-07-14T12:04:29.520Z,1.70
2018-07-14T12:06:56.928Z,1.70
2018-07-14T12:09:24.252Z,1.40
2018-07-14T12:11:51.688Z,1.90
2018-07-14T12:14:18.960Z,1.80
2018-07-14T12:16:46.244Z,1.92
2018-07-14T12:19:13.568Z,2.40
2018-07-14T12:21:40.885Z,1.80
2018-07-14T12:24:08.210Z,2.10
2018-07-14T12:26:35.533Z,1.40
2018-07-14T12:29:02.880Z,1.83
2018-07-14T12:31:30.216Z,1.50
2018-07-14T12:33:57.760Z,1.90
2018-07-14T12:36:25.456Z,1.40
2018-07-14T12:38:52.852Z,1.80
2018-07-14T12:41:20.147Z,1.42
2018-07-14T12:43:47.463Z,1.80
2018-07-14T12:46:14.777Z,3.83
2018-07-14T12:48:42.121Z,1.20
2018-07-14T13:08:17.353Z,1.40
2018-07-14T13:10:44.640Z,2.50
2018-07-14T13:13:11.893Z,2.20
2018-07-14T13:15:39.460Z,1.90
2018-07-14T13:18:06.873Z,2.37
2018-07-14T13:20:34.190Z,2.00
2018-07-14T13:23:01.472Z,2.40
2018-07-14T13:25:29.527Z,1.90
2018-07-14T13:27:56.778Z,3.00
2018-07-14T13:30:24.053Z,2.17
2018-07-14T13:32:51.534Z,1.40
2018-07-14T13:35:18.791Z,2.30
2018-07-14T13:37:46.070Z,2.40
2018-07-14T13:40:13.410Z,1.47
2018-07-14T13:42:40.720Z,1.37
2018-07-14T13:45:08.048Z,1.60
2018-07-14T13:47:35.396Z,1.73
2018-07-14T15:05:55.062Z,2.60
2018-07-14T15:08:22.454Z,3.77
2018-07-14T15:10:49.774Z,3.80
2018-07-14T15:13:17.130Z,2.70
2018-07-14T15:15:44.486Z,1.30
2018-07-14T15:18:11.810Z,1.10
2018-07-14T15:20:39.127Z,2.08
2018-07-14T15:23:06.574Z,4.10
2018-07-14T15:25:33.900Z,2.00
2018-07-14T15:28:01.200Z,1.60
2018-07-14T15:30:28.511Z,1.32
2018-07-14T15:32:55.892Z,1.25
2018-07-14T15:35:23.086Z,2.53
2018-07-14T15:37:50.451Z,2.20
2018-07-14T15:40:17.653Z,2.08
2018-07-14T15:42:44.925Z,3.43
2018-07-14T15:45:12.229Z,2.95
2018-07-14T15:47:39.555Z,2.22
2018-07-14T15:50:07.036Z,1.50
2018-07-14T15:52:34.938Z,2.20
2018-07-14T15:55:02.231Z,1.72
2018-07-14T15:57:29.691Z,2.37
2018-07-14T16:01:51.774Z,2.72
2018-07-14T16:04:19.056Z,3.35
2018-07-14T16:06:46.380Z,3.50
2018-07-14T16:09:13.680Z,3.45
2018-07-14T16:11:40.942Z,3.50
2018-07-14T16:14:08.297Z,2.10
2018-07-14T16:16:35.594Z,1.80
2018-07-14T16:19:02.949Z,4.60
2018-07-14T16:21:30.240Z,5.92
2018-07-14T16:23:57.519Z,4.45
2018-07-14T16:26:24.918Z,3.83
2018-07-14T16:28:52.269Z,3.33
2018-07-14T16:31:19.584Z,6.25
2018-07-14T16:33:46.872Z,5.70
2018-07-14T16:36:14.335Z,4.00
2018-07-14T16:38:41.753Z,4.60
2018-07-14T16:41:09.004Z,2.93
2018-07-14T16:43:36.687Z,1.80
2018-07-14T16:46:04.114Z,1.43
2018-07-14T16:48:31.860Z,1.33
2018-07-14T16:50:59.663Z,1.73
2018-07-14T16:53:26.992Z,1.50
2018-07-14T16:55:54.315Z,1.83
2018-07-14T16:58:22.553Z,6.83
2018-07-14T17:00:50.029Z,5.83
2018-07-14T17:03:17.392Z,6.20
2018-07-14T17:05:44.688Z,5.37
2018-07-14T17:08:11.996Z,1.77
2018-07-14T17:10:39.537Z,2.13
2018-07-14T17:13:06.913Z,1.53
2018-07-14T17:15:34.281Z,1.40
2018-07-14T17:18:01.718Z,2.80
2018-07-14T18:06:58.901Z,1.50
2018-07-14T18:09:26.141Z,1.60
2018-07-14T18:11:53.421Z,1.60
2018-07-14T18:14:20.754Z,2.47
2018-07-14T18:16:48.046Z,1.90
2018-07-14T18:19:15.345Z,1.60
2018-07-14T18:21:42.668Z,1.80
2018-07-14T18:24:10.169Z,3.52
2018-07-14T18:26:37.517Z,3.47
2018-07-14T18:29:04.871Z,2.00
2018-07-14T18:31:32.194Z,2.60
2018-07-14T18:33:59.478Z,5.80
2018-07-14T18:36:26.856Z,2.27
2018-07-14T18:38:54.156Z,2.35
2018-07-14T18:41:21.432Z,3.30
2018-07-14T18:43:48.708Z,1.90
2018-07-14T18:46:16.193Z,2.10
2018-07-14T18:48:43.496Z,2.00
2018-07-14T18:51:10.745Z,2.20
2018-07-14T18:53:38.413Z,3.83
2018-07-14T18:56:05.759Z,4.80
2018-07-14T18:58:33.028Z,3.00
2018-07-14T19:01:00.320Z,5.20
2018-07-14T19:03:27.724Z,5.60
2018-07-14T19:05:55.074Z,5.20
2018-07-14T19:08:22.328Z,3.47
2018-07-14T19:10:49.589Z,2.40
2018-07-14T19:13:16.872Z,3.83
2018-07-14T19:15:45.060Z,3.70
2018-07-14T19:18:12.425Z,4.30
2018-07-14T19:20:39.655Z,4.85
2018-07-14T19:23:06.975Z,3.47
2018-07-14T19:25:34.212Z,9.35
2018-07-14T19:28:01.448Z,5.67
2018-07-14T19:30:28.725Z,10.13
2018-07-14T19:32:55.973Z,6.55
2018-07-14T19:35:23.226Z,4.10
2018-07-14T19:37:50.556Z,2.80
2018-07-14T19:40:17.831Z,3.80
2018-07-14T19:42:45.047Z,2.65
2018-07-14T19:45:12.336Z,2.58
2018-07-14T19:47:39.852Z,2.90
2018-07-14T19:50:10.381Z,2.30
2018-07-14T19:52:40.145Z,3.00
2018-07-14T19:55:08.323Z,2.62
2018-07-14T19:57:35.709Z,3.10
2018-07-14T20:00:03.387Z,3.02
2018-07-14T20:02:30.682Z,3.40
2018-07-14T20:05:17.743Z,2.95
2018-07-14T20:07:45.053Z,4.87
2018-07-14T20:10:12.442Z,4.00
2018-07-14T20:12:39.911Z,4.80
2018-07-14T20:15:07.224Z,4.50
2018-07-14T20:17:34.522Z,3.20
2018-07-14T20:20:01.819Z,4.12
2018-07-14T20:22:29.117Z,4.37
2018-07-14T20:24:56.404Z,5.27
2018-07-14T20:27:23.671Z,4.10
2018-07-14T20:29:51.014Z,3.95
2018-07-14T20:32:18.342Z,4.25
2018-07-14T20:34:45.635Z,3.90
2018-07-14T20:37:12.926Z,5.08
2018-07-14T20:39:40.664Z,4.10
2018-07-14T20:42:08.047Z,3.50
2018-07-14T20:44:35.412Z,3.95
2018-07-14T20:47:02.949Z,3.42
2018-07-14T20:49:30.200Z,3.70
2018-07-14T20:51:57.449Z,3.43
2018-07-14T20:54:24.716Z,3.40
2018-07-14T20:56:52.216Z,2.85
2018-07-14T20:59:19.516Z,3.60
2018-07-14T21:01:46.822Z,3.60
2018-07-14T21:04:14.093Z,3.80
2018-07-14T21:06:41.386Z,3.02
2018-07-14T21:09:08.703Z,3.60
2018-07-14T21:11:36.011Z,3.10
2018-07-14T21:14:03.494Z,3.00
2018-07-14T21:16:30.805Z,3.20
2018-07-14T21:18:58.233Z,3.40
2018-07-14T21:21:25.609Z,3.30
2018-07-14T21:23:52.859Z,3.50
2018-07-14T21:26:20.295Z,4.50
2018-07-14T21:28:47.601Z,3.10
2018-07-14T21:31:14.854Z,3.70
2018-07-14T21:33:42.117Z,3.20
2018-07-14T21:36:09.362Z,3.00
2018-07-14T21:38:36.616Z,2.98
2018-07-14T21:41:03.909Z,3.22
2018-07-14T21:43:31.301Z,2.87
2018-07-14T21:45:58.564Z,3.50
2018-07-14T21:48:25.945Z,3.80
2018-07-14T21:50:53.177Z,3.90
2018-07-14T21:53:20.424Z,3.83
2018-07-14T21:55:47.729Z,3.50
2018-07-14T21:58:15.058Z,3.95
2018-07-14T22:00:54.733Z,4.10
2018-07-14T22:07:38.786Z,4.83
2018-07-14T22:10:06.185Z,4.30
2018-07-14T22:12:33.847Z,4.30
2018-07-14T22:15:01.364Z,4.80
2018-07-14T22:17:28.423Z,4.10
2018-07-14T22:19:55.705Z,4.25
2018-07-14T22:22:22.999Z,4.05
2018-07-14T22:24:50.272Z,5.10
2018-07-14T22:27:17.517Z,4.80
2018-07-14T22:29:44.786Z,5.37
2018-07-14T22:32:12.096Z,5.10
2018-07-14T22:34:39.387Z,4.80
2018-07-14T22:37:06.716Z,4.50
2018-07-14T22:39:33.990Z,4.90
2018-07-14T22:42:01.204Z,4.70
2018-07-14T22:44:28.798Z,4.97
2018-07-14T22:46:56.020Z,4.60
2018-07-14T22:49:23.228Z,4.47
2018-07-14T22:51:50.520Z,4.50
2018-07-14T22:54:17.718Z,4.40
2018-07-14T22:56:44.967Z,4.40
2018-07-14T22:59:12.270Z,4.90
2018-07-14T23:01:39.651Z,4.80
2018-07-14T23:04:06.907Z,4.75
2018-07-14T23:06:34.234Z,5.00
2018-07-14T23:09:01.459Z,4.90
2018-07-14T23:11:28.744Z,5.30
2018-07-14T23:13:56.022Z,5.90
2018-07-14T23:16:23.395Z,4.75
2018-07-14T23:18:50.750Z,4.77
2018-07-14T23:21:18.317Z,4.43
2018-07-14T23:23:45.946Z,5.03
2018-07-14T23:26:13.250Z,5.03
2018-07-14T23:28:40.517Z,5.17
2018-07-14T23:31:07.908Z,4.95
2018-07-14T23:33:35.221Z,5.28
2018-07-14T23:36:02.517Z,5.30
2018-07-14T23:38:29.788Z,5.97
2018-07-14T23:40:57.068Z,5.37
2018-07-14T23:43:24.320Z,6.05
2018-07-14T23:45:51.568Z,6.17
2018-07-14T23:48:19.294Z,5.92
2018-07-14T23:50:46.583Z,5.97
2018-07-14T23:53:13.840Z,5.75
2018-07-14T23:55:41.160Z,5.50
2018-07-14T23:58:08.509Z,5.30
